sensor_id;sensor_type;location;lat;lon;timestamp;P1;durP1;ratioP1;P2;durP2;ratioP2
18711;SDS011;9485;49.386;8.674;2022-09-01T00:03:37;5.28;;;3.90;;
18711;SDS011;9485;49.386;8.674;2022-09-01T00:09:00;4.65;;;3.67;;
18711;SDS011;9485;49.386;8.674;2022-09-01T00:14:27;3.55;;;3.25;;
18711;SDS011;9485;49.386;8.674;2022-09-01T00:19:51;3.58;;;3.28;;
18711;SDS011;9485;49.386;8.674;2022-09-01T00:25:13;4.10;;;3.70;;
18711;SDS011;9485;49.386;8.674;2022-09-01T00:30:36;4.25;;;3.83;;
18711;SDS011;9485;49.386;8.674;2022-09-01T00:35:58;5.05;;;3.90;;
18711;SDS011;9485;49.386;8.674;2022-09-01T00:41:21;6.03;;;4.18;;
18711;SDS011;9485;49.386;8.674;2022-09-01T00:46:47;4.60;;;4.20;;
18711;SDS011;9485;49.386;8.674;2022-09-01T00:52:12;8.25;;;4.43;;
18711;SDS011;9485;49.386;8.674;2022-09-01T00:57:37;3.67;;;3.38;;
18711;SDS011;9485;49.386;8.674;2022-09-01T01:02:59;4.40;;;4.03;;
18711;SDS011;9485;49.386;8.674;2022-09-01T01:08:20;4.88;;;4.43;;
18711;SDS011;9485;49.386;8.674;2022-09-01T01:13:54;4.53;;;3.75;;
18711;SDS011;9485;49.386;8.674;2022-09-01T01:19:19;5.10;;;4.28;;
18711;SDS011;9485;49.386;8.674;2022-09-01T01:25:06;5.95;;;5.00;;
18711;SDS011;9485;49.386;8.674;2022-09-01T01:30:30;4.53;;;3.58;;
18711;SDS011;9485;49.386;8.674;2022-09-01T01:35:54;4.50;;;3.65;;
18711;SDS011;9485;49.386;8.674;2022-09-01T01:41:19;4.25;;;3.85;;
18711;SDS011;9485;49.386;8.674;2022-09-01T01:46:42;4.88;;;4.47;;
18711;SDS011;9485;49.386;8.674;2022-09-01T01:52:06;4.90;;;4.40;;
18711;SDS011;9485;49.386;8.674;2022-09-01T01:57:28;3.60;;;3.30;;
18711;SDS011;9485;49.386;8.674;2022-09-01T02:02:50;3.67;;;3.35;;
18711;SDS011;9485;49.386;8.674;2022-09-01T02:08:12;3.80;;;3.07;;
18711;SDS011;9485;49.386;8.674;2022-09-01T02:13:37;3.57;;;3.13;;
18711;SDS011;9485;49.386;8.674;2022-09-01T02:18:58;3.67;;;3.38;;
18711;SDS011;9485;49.386;8.674;2022-09-01T02:24:21;3.57;;;3.27;;
18711;SDS011;9485;49.386;8.674;2022-09-01T02:29:44;3.30;;;3.00;;
18711;SDS011;9485;49.386;8.674;2022-09-01T02:35:06;3.77;;;3.37;;
18711;SDS011;9485;49.386;8.674;2022-09-01T02:40:29;5.23;;;3.50;;
18711;SDS011;9485;49.386;8.674;2022-09-01T02:45:55;3.87;;;3.50;;
18711;SDS011;9485;49.386;8.674;2022-09-01T02:51:19;3.42;;;3.15;;
18711;SDS011;9485;49.386;8.674;2022-09-01T02:56:44;3.57;;;3.27;;
18711;SDS011;9485;49.386;8.674;2022-09-01T03:02:07;3.43;;;3.03;;
18711;SDS011;9485;49.386;8.674;2022-09-01T03:07:28;3.80;;;3.17;;
18711;SDS011;9485;49.386;8.674;2022-09-01T03:12:52;4.73;;;3.10;;
18711;SDS011;9485;49.386;8.674;2022-09-01T03:18:16;3.45;;;3.15;;
18711;SDS011;9485;49.386;8.674;2022-09-01T03:23:37;3.20;;;2.90;;
18711;SDS011;9485;49.386;8.674;2022-09-01T03:28:57;4.32;;;3.45;;
18711;SDS011;9485;49.386;8.674;2022-09-01T03:34:19;3.07;;;2.80;;
18711;SDS011;9485;49.386;8.674;2022-09-01T03:39:43;3.63;;;3.30;;
18711;SDS011;9485;49.386;8.674;2022-09-01T03:45:05;3.77;;;3.40;;
18711;SDS011;9485;49.386;8.674;2022-09-01T03:50:35;3.87;;;3.43;;
18711;SDS011;9485;49.386;8.674;2022-09-01T03:56:03;3.50;;;3.20;;
18711;SDS011;9485;49.386;8.674;2022-09-01T04:01:26;6.30;;;3.90;;
18711;SDS011;9485;49.386;8.674;2022-09-01T04:06:52;4.57;;;4.10;;
18711;SDS011;9485;49.386;8.674;2022-09-01T04:12:13;5.10;;;4.53;;
18711;SDS011;9485;49.386;8.674;2022-09-01T04:17:37;4.87;;;4.47;;
18711;SDS011;9485;49.386;8.674;2022-09-01T04:23:18;3.33;;;3.03;;
18711;SDS011;9485;49.386;8.674;2022-09-01T04:28:46;4.43;;;4.03;;
18711;SDS011;9485;49.386;8.674;2022-09-01T04:34:08;4.10;;;3.53;;
18711;SDS011;9485;49.386;8.674;2022-09-01T04:39:33;4.27;;;3.87;;
18711;SDS011;9485;49.386;8.674;2022-09-01T04:44:54;4.13;;;3.73;;
18711;SDS011;9485;49.386;8.674;2022-09-01T04:50:17;4.17;;;3.77;;
18711;SDS011;9485;49.386;8.674;2022-09-01T04:56:02;4.70;;;4.30;;
18711;SDS011;9485;49.386;8.674;2022-09-01T05:01:29;4.30;;;3.90;;
18711;SDS011;9485;49.386;8.674;2022-09-01T05:07:02;4.33;;;3.93;;
18711;SDS011;9485;49.386;8.674;2022-09-01T05:12:31;4.47;;;4.07;;
18711;SDS011;9485;49.386;8.674;2022-09-01T05:17:53;4.03;;;3.70;;
18711;SDS011;9485;49.386;8.674;2022-09-01T05:23:20;4.40;;;3.90;;
18711;SDS011;9485;49.386;8.674;2022-09-01T05:28:44;3.83;;;3.53;;
18711;SDS011;9485;49.386;8.674;2022-09-01T05:34:07;4.37;;;3.97;;
18711;SDS011;9485;49.386;8.674;2022-09-01T05:39:29;4.60;;;4.20;;
18711;SDS011;9485;49.386;8.674;2022-09-01T05:44:51;4.50;;;4.10;;
18711;SDS011;9485;49.386;8.674;2022-09-01T05:50:12;6.07;;;4.23;;
18711;SDS011;9485;49.386;8.674;2022-09-01T05:55:35;3.83;;;3.53;;
18711;SDS011;9485;49.386;8.674;2022-09-01T06:00:57;4.10;;;3.70;;
18711;SDS011;9485;49.386;8.674;2022-09-01T06:06:19;3.30;;;3.08;;
18711;SDS011;9485;49.386;8.674;2022-09-01T06:11:41;3.97;;;3.65;;
18711;SDS011;9485;49.386;8.674;2022-09-01T06:17:06;3.88;;;3.30;;
18711;SDS011;9485;49.386;8.674;2022-09-01T06:22:27;3.92;;;3.63;;
18711;SDS011;9485;49.386;8.674;2022-09-01T06:27:50;3.92;;;3.63;;
18711;SDS011;9485;49.386;8.674;2022-09-01T06:33:13;4.13;;;3.67;;
18711;SDS011;9485;49.386;8.674;2022-09-01T06:38:39;3.47;;;3.17;;
18711;SDS011;9485;49.386;8.674;2022-09-01T06:44:00;3.63;;;3.33;;
18711;SDS011;9485;49.386;8.674;2022-09-01T06:49:23;5.28;;;3.97;;
18711;SDS011;9485;49.386;8.674;2022-09-01T06:54:50;4.00;;;3.58;;
18711;SDS011;9485;49.386;8.674;2022-09-01T07:00:12;6.70;;;4.15;;
18711;SDS011;9485;49.386;8.674;2022-09-01T07:05:38;4.05;;;3.75;;
18711;SDS011;9485;49.386;8.674;2022-09-01T07:11:00;4.68;;;4.25;;
18711;SDS011;9485;49.386;8.674;2022-09-01T07:16:25;4.53;;;4.13;;
18711;SDS011;9485;49.386;8.674;2022-09-01T07:21:48;4.18;;;3.20;;
18711;SDS011;9485;49.386;8.674;2022-09-01T07:27:09;3.92;;;3.38;;
18711;SDS011;9485;49.386;8.674;2022-09-01T07:32:31;4.18;;;3.50;;
18711;SDS011;9485;49.386;8.674;2022-09-01T07:37:54;3.80;;;3.50;;
18711;SDS011;9485;49.386;8.674;2022-09-01T07:43:16;4.30;;;3.30;;
18711;SDS011;9485;49.386;8.674;2022-09-01T07:49:13;3.85;;;3.47;;
18711;SDS011;9485;49.386;8.674;2022-09-01T07:54:35;5.63;;;3.47;;
18711;SDS011;9485;49.386;8.674;2022-09-01T07:59:56;3.70;;;3.40;;
18711;SDS011;9485;49.386;8.674;2022-09-01T08:05:31;3.53;;;3.22;;
18711;SDS011;9485;49.386;8.674;2022-09-01T08:10:54;3.25;;;2.95;;
18711;SDS011;9485;49.386;8.674;2022-09-01T08:16:15;3.83;;;3.47;;
18711;SDS011;9485;49.386;8.674;2022-09-01T08:21:36;3.67;;;3.22;;
18711;SDS011;9485;49.386;8.674;2022-09-01T08:27:14;3.22;;;3.03;;
18711;SDS011;9485;49.386;8.674;2022-09-01T08:32:35;4.15;;;3.75;;
18711;SDS011;9485;49.386;8.674;2022-09-01T08:38:01;3.22;;;2.92;;
18711;SDS011;9485;49.386;8.674;2022-09-01T08:43:24;3.22;;;3.03;;
18711;SDS011;9485;49.386;8.674;2022-09-01T08:49:03;3.53;;;3.22;;
18711;SDS011;9485;49.386;8.674;2022-09-01T08:54:48;3.58;;;3.28;;
18711;SDS011;9485;49.386;8.674;2022-09-01T09:00:15;3.15;;;2.95;;
18711;SDS011;9485;49.386;8.674;2022-09-01T09:05:42;3.15;;;2.85;;
18711;SDS011;9485;49.386;8.674;2022-09-01T09:11:43;3.30;;;3.10;;
18711;SDS011;9485;49.386;8.674;2022-09-01T09:17:36;3.28;;;2.97;;
18711;SDS011;9485;49.386;8.674;2022-09-01T09:23:05;3.17;;;2.92;;
18711;SDS011;9485;49.386;8.674;2022-09-01T09:28:35;5.78;;;2.60;;
18711;SDS011;9485;49.386;8.674;2022-09-01T09:33:58;2.42;;;2.22;;
18711;SDS011;9485;49.386;8.674;2022-09-01T09:39:19;2.38;;;2.22;;
18711;SDS011;9485;49.386;8.674;2022-09-01T09:44:42;2.35;;;2.20;;
18711;SDS011;9485;49.386;8.674;2022-09-01T09:50:17;2.80;;;2.60;;
18711;SDS011;9485;49.386;8.674;2022-09-01T09:55:49;2.58;;;2.38;;
18711;SDS011;9485;49.386;8.674;2022-09-01T10:01:26;2.65;;;2.45;;
18711;SDS011;9485;49.386;8.674;2022-09-01T10:06:51;2.47;;;2.30;;
18711;SDS011;9485;49.386;8.674;2022-09-01T10:12:13;2.33;;;2.13;;
18711;SDS011;9485;49.386;8.674;2022-09-01T10:17:34;2.47;;;2.33;;
18711;SDS011;9485;49.386;8.674;2022-09-01T10:23:01;2.42;;;2.22;;
18711;SDS011;9485;49.386;8.674;2022-09-01T10:28:22;3.85;;;2.65;;
18711;SDS011;9485;49.386;8.674;2022-09-01T10:33:44;2.50;;;2.30;;
18711;SDS011;9485;49.386;8.674;2022-09-01T10:39:08;2.17;;;2.08;;
18711;SDS011;9485;49.386;8.674;2022-09-01T10:44:31;2.90;;;2.13;;
18711;SDS011;9485;49.386;8.674;2022-09-01T10:49:58;2.53;;;2.40;;
18711;SDS011;9485;49.386;8.674;2022-09-01T10:55:24;2.67;;;2.47;;
18711;SDS011;9485;49.386;8.674;2022-09-01T11:00:56;2.65;;;2.38;;
18711;SDS011;9485;49.386;8.674;2022-09-01T11:18:07;2.65;;;2.45;;
18711;SDS011;9485;49.386;8.674;2022-09-01T11:23:33;2.17;;;1.98;;
18711;SDS011;9485;49.386;8.674;2022-09-01T11:28:55;2.50;;;2.30;;
18711;SDS011;9485;49.386;8.674;2022-09-01T11:34:17;2.45;;;2.25;;
18711;SDS011;9485;49.386;8.674;2022-09-01T11:39:41;3.90;;;2.47;;
18711;SDS011;9485;49.386;8.674;2022-09-01T11:45:11;3.58;;;2.60;;
18711;SDS011;9485;49.386;8.674;2022-09-01T11:50:37;2.60;;;2.40;;
18711;SDS011;9485;49.386;8.674;2022-09-01T11:56:11;2.92;;;2.72;;
18711;SDS011;9485;49.386;8.674;2022-09-01T12:01:37;2.45;;;2.25;;
18711;SDS011;9485;49.386;8.674;2022-09-01T12:06:59;2.63;;;2.33;;
18711;SDS011;9485;49.386;8.674;2022-09-01T12:12:28;2.80;;;2.60;;
18711;SDS011;9485;49.386;8.674;2022-09-01T12:18:06;2.70;;;2.50;;
18711;SDS011;9485;49.386;8.674;2022-09-01T12:23:32;2.67;;;2.47;;
18711;SDS011;9485;49.386;8.674;2022-09-01T12:28:55;2.80;;;2.60;;
18711;SDS011;9485;49.386;8.674;2022-09-01T12:34:25;3.97;;;2.60;;
18711;SDS011;9485;49.386;8.674;2022-09-01T12:39:56;2.60;;;2.40;;
18711;SDS011;9485;49.386;8.674;2022-09-01T12:51:05;2.70;;;2.50;;
18711;SDS011;9485;49.386;8.674;2022-09-01T12:56:38;3.00;;;2.70;;
18711;SDS011;9485;49.386;8.674;2022-09-01T13:07:54;3.25;;;2.85;;
18711;SDS011;9485;49.386;8.674;2022-09-01T13:13:17;2.55;;;2.35;;
18711;SDS011;9485;49.386;8.674;2022-09-01T13:18:39;3.13;;;2.83;;
18711;SDS011;9485;49.386;8.674;2022-09-01T13:24:02;2.60;;;2.40;;
18711;SDS011;9485;49.386;8.674;2022-09-01T13:29:24;2.42;;;2.30;;
18711;SDS011;9485;49.386;8.674;2022-09-01T13:34:45;2.47;;;2.28;;
18711;SDS011;9485;49.386;8.674;2022-09-01T13:40:08;2.88;;;2.50;;
18711;SDS011;9485;49.386;8.674;2022-09-01T13:45:34;2.83;;;2.63;;
18711;SDS011;9485;49.386;8.674;2022-09-01T13:50:55;2.72;;;2.10;;
18711;SDS011;9485;49.386;8.674;2022-09-01T13:56:18;2.22;;;2.13;;
18711;SDS011;9485;49.386;8.674;2022-09-01T14:01:39;2.38;;;2.17;;
18711;SDS011;9485;49.386;8.674;2022-09-01T14:07:00;2.08;;;1.98;;
18711;SDS011;9485;49.386;8.674;2022-09-01T14:12:23;2.20;;;2.00;;
18711;SDS011;9485;49.386;8.674;2022-09-01T14:17:44;2.05;;;1.95;;
18711;SDS011;9485;49.386;8.674;2022-09-01T14:23:07;2.83;;;2.20;;
18711;SDS011;9485;49.386;8.674;2022-09-01T14:28:30;2.70;;;2.20;;
18711;SDS011;9485;49.386;8.674;2022-09-01T14:33:50;2.47;;;2.28;;
18711;SDS011;9485;49.386;8.674;2022-09-01T14:39:11;2.55;;;2.35;;
18711;SDS011;9485;49.386;8.674;2022-09-01T14:44:33;2.90;;;2.00;;
18711;SDS011;9485;49.386;8.674;2022-09-01T14:49:55;2.17;;;1.98;;
18711;SDS011;9485;49.386;8.674;2022-09-01T14:55:15;2.10;;;2.00;;
18711;SDS011;9485;49.386;8.674;2022-09-01T15:00:37;1.85;;;1.75;;
18711;SDS011;9485;49.386;8.674;2022-09-01T15:05:59;2.30;;;2.10;;
18711;SDS011;9485;49.386;8.674;2022-09-01T15:11:20;2.05;;;1.85;;
18711;SDS011;9485;49.386;8.674;2022-09-01T15:16:41;2.38;;;2.17;;
18711;SDS011;9485;49.386;8.674;2022-09-01T15:22:04;2.15;;;1.92;;
18711;SDS011;9485;49.386;8.674;2022-09-01T15:27:26;2.05;;;1.95;;
18711;SDS011;9485;49.386;8.674;2022-09-01T15:32:48;2.13;;;2.03;;
18711;SDS011;9485;49.386;8.674;2022-09-01T15:38:12;2.50;;;1.63;;
18711;SDS011;9485;49.386;8.674;2022-09-01T15:43:34;2.15;;;2.05;;
18711;SDS011;9485;49.386;8.674;2022-09-01T15:48:56;2.42;;;2.22;;
18711;SDS011;9485;49.386;8.674;2022-09-01T15:54:18;2.00;;;1.90;;
18711;SDS011;9485;49.386;8.674;2022-09-01T15:59:39;2.33;;;2.13;;
18711;SDS011;9485;49.386;8.674;2022-09-01T16:05:02;2.70;;;1.92;;
18711;SDS011;9485;49.386;8.674;2022-09-01T16:10:24;1.98;;;1.80;;
18711;SDS011;9485;49.386;8.674;2022-09-01T16:15:47;2.97;;;2.70;;
18711;SDS011;9485;49.386;8.674;2022-09-01T16:21:23;2.20;;;2.00;;
18711;SDS011;9485;49.386;8.674;2022-09-01T16:26:53;2.15;;;1.95;;
18711;SDS011;9485;49.386;8.674;2022-09-01T16:32:16;3.00;;;2.28;;
18711;SDS011;9485;49.386;8.674;2022-09-01T16:37:44;2.45;;;2.25;;
18711;SDS011;9485;49.386;8.674;2022-09-01T16:43:17;2.20;;;2.00;;
18711;SDS011;9485;49.386;8.674;2022-09-01T16:48:50;2.28;;;1.83;;
18711;SDS011;9485;49.386;8.674;2022-09-01T16:54:21;2.15;;;1.95;;
18711;SDS011;9485;49.386;8.674;2022-09-01T16:59:55;3.28;;;1.98;;
18711;SDS011;9485;49.386;8.674;2022-09-01T17:05:24;2.10;;;1.90;;
18711;SDS011;9485;49.386;8.674;2022-09-01T17:10:52;2.10;;;1.92;;
18711;SDS011;9485;49.386;8.674;2022-09-01T17:16:17;2.00;;;1.90;;
18711;SDS011;9485;49.386;8.674;2022-09-01T17:21:47;2.42;;;1.80;;
18711;SDS011;9485;49.386;8.674;2022-09-01T17:27:13;2.53;;;1.90;;
18711;SDS011;9485;49.386;8.674;2022-09-01T17:38:34;2.50;;;2.30;;
18711;SDS011;9485;49.386;8.674;2022-09-01T17:44:12;2.75;;;2.47;;
18711;SDS011;9485;49.386;8.674;2022-09-01T17:49:44;2.10;;;1.90;;
18711;SDS011;9485;49.386;8.674;2022-09-01T17:55:18;2.30;;;2.10;;
18711;SDS011;9485;49.386;8.674;2022-09-01T18:00:59;2.10;;;2.00;;
18711;SDS011;9485;49.386;8.674;2022-09-01T18:06:28;2.10;;;1.90;;
18711;SDS011;9485;49.386;8.674;2022-09-01T18:11:59;2.60;;;1.92;;
18711;SDS011;9485;49.386;8.674;2022-09-01T18:17:29;3.15;;;2.22;;
18711;SDS011;9485;49.386;8.674;2022-09-01T18:22:54;2.13;;;2.03;;
18711;SDS011;9485;49.386;8.674;2022-09-01T18:28:20;2.20;;;2.00;;
18711;SDS011;9485;49.386;8.674;2022-09-01T18:33:44;2.00;;;1.80;;
18711;SDS011;9485;49.386;8.674;2022-09-01T18:39:23;2.95;;;1.80;;
18711;SDS011;9485;49.386;8.674;2022-09-01T18:44:52;2.30;;;2.10;;
18711;SDS011;9485;49.386;8.674;2022-09-01T18:50:26;2.20;;;2.05;;
18711;SDS011;9485;49.386;8.674;2022-09-01T18:55:56;2.40;;;2.20;;
18711;SDS011;9485;49.386;8.674;2022-09-01T19:01:29;2.75;;;2.20;;
18711;SDS011;9485;49.386;8.674;2022-09-01T19:06:57;3.03;;;2.15;;
18711;SDS011;9485;49.386;8.674;2022-09-01T19:12:32;3.05;;;2.15;;
18711;SDS011;9485;49.386;8.674;2022-09-01T19:18:02;2.40;;;2.20;;
18711;SDS011;9485;49.386;8.674;2022-09-01T19:23:37;2.20;;;2.00;;
18711;SDS011;9485;49.386;8.674;2022-09-01T19:29:09;2.40;;;2.20;;
18711;SDS011;9485;49.386;8.674;2022-09-01T19:34:36;2.40;;;2.20;;
18711;SDS011;9485;49.386;8.674;2022-09-01T19:40:03;2.00;;;1.90;;
18711;SDS011;9485;49.386;8.674;2022-09-01T19:45:29;2.78;;;2.05;;
18711;SDS011;9485;49.386;8.674;2022-09-01T19:51:04;2.45;;;2.25;;
18711;SDS011;9485;49.386;8.674;2022-09-01T19:56:36;2.20;;;2.05;;
18711;SDS011;9485;49.386;8.674;2022-09-01T20:02:04;2.42;;;2.22;;
18711;SDS011;9485;49.386;8.674;2022-09-01T20:07:41;2.72;;;2.10;;
18711;SDS011;9485;49.386;8.674;2022-09-01T20:13:18;2.70;;;2.10;;
18711;SDS011;9485;49.386;8.674;2022-09-01T20:18:58;2.45;;;2.25;;
18711;SDS011;9485;49.386;8.674;2022-09-01T20:24:27;5.22;;;2.42;;
18711;SDS011;9485;49.386;8.674;2022-09-01T20:29:59;2.35;;;2.08;;
18711;SDS011;9485;49.386;8.674;2022-09-01T20:35:25;2.05;;;1.83;;
18711;SDS011;9485;49.386;8.674;2022-09-01T20:40:55;2.40;;;2.20;;
18711;SDS011;9485;49.386;8.674;2022-09-01T20:46:23;2.67;;;2.08;;
18711;SDS011;9485;49.386;8.674;2022-09-01T20:51:46;3.80;;;2.20;;
18711;SDS011;9485;49.386;8.674;2022-09-01T20:57:21;2.50;;;2.30;;
18711;SDS011;9485;49.386;8.674;2022-09-01T21:02:58;2.40;;;2.20;;
18711;SDS011;9485;49.386;8.674;2022-09-01T21:08:28;2.47;;;2.28;;
18711;SDS011;9485;49.386;8.674;2022-09-01T21:14:06;2.60;;;2.40;;
18711;SDS011;9485;49.386;8.674;2022-09-01T21:19:54;2.53;;;2.33;;
18711;SDS011;9485;49.386;8.674;2022-09-01T21:25:29;2.58;;;2.38;;
18711;SDS011;9485;49.386;8.674;2022-09-01T21:30:51;3.22;;;2.35;;
18711;SDS011;9485;49.386;8.674;2022-09-01T21:36:16;2.15;;;2.05;;
18711;SDS011;9485;49.386;8.674;2022-09-01T21:41:37;2.33;;;2.13;;
18711;SDS011;9485;49.386;8.674;2022-09-01T21:46:58;3.60;;;2.60;;
18711;SDS011;9485;49.386;8.674;2022-09-01T21:52:20;2.90;;;1.88;;
18711;SDS011;9485;49.386;8.674;2022-09-01T21:57:40;2.42;;;2.22;;
18711;SDS011;9485;49.386;8.674;2022-09-01T22:03:03;2.40;;;2.10;;
18711;SDS011;9485;49.386;8.674;2022-09-01T22:08:25;2.35;;;2.15;;
18711;SDS011;9485;49.386;8.674;2022-09-01T22:13:46;2.08;;;1.88;;
18711;SDS011;9485;49.386;8.674;2022-09-01T22:19:08;2.35;;;2.15;;
18711;SDS011;9485;49.386;8.674;2022-09-01T22:24:30;2.60;;;2.40;;
18711;SDS011;9485;49.386;8.674;2022-09-01T22:29:50;2.53;;;1.98;;
18711;SDS011;9485;49.386;8.674;2022-09-01T22:35:11;2.47;;;2.20;;
18711;SDS011;9485;49.386;8.674;2022-09-01T22:40:35;2.38;;;2.17;;
18711;SDS011;9485;49.386;8.674;2022-09-01T22:46:04;2.42;;;2.10;;
18711;SDS011;9485;49.386;8.674;2022-09-01T22:51:27;2.35;;;2.15;;
18711;SDS011;9485;49.386;8.674;2022-09-01T22:56:49;2.45;;;2.00;;
18711;SDS011;9485;49.386;8.674;2022-09-01T23:02:10;2.38;;;2.17;;
18711;SDS011;9485;49.386;8.674;2022-09-01T23:07:31;2.20;;;2.00;;
18711;SDS011;9485;49.386;8.674;2022-09-01T23:12:56;2.40;;;2.20;;
18711;SDS011;9485;49.386;8.674;2022-09-01T23:18:17;2.17;;;1.98;;
18711;SDS011;9485;49.386;8.674;2022-09-01T23:23:38;2.08;;;1.92;;
18711;SDS011;9485;49.386;8.674;2022-09-01T23:29:01;2.50;;;2.30;;
18711;SDS011;9485;49.386;8.674;2022-09-01T23:34:23;2.83;;;2.10;;
18711;SDS011;9485;49.386;8.674;2022-09-01T23:39:44;2.25;;;2.03;;
18711;SDS011;9485;49.386;8.674;2022-09-01T23:45:07;2.13;;;2.00;;
18711;SDS011;9485;49.386;8.674;2022-09-01T23:50:28;1.95;;;1.80;;
18711;SDS011;9485;49.386;8.674;2022-09-01T23:56:16;3.25;;;2.17;;
